Airfield :
LOGIN :

Register | Disclaimer

   EN    FR    IT 

 










Legend :    VFR   Marginal VFR   IFR   Intensive IFR   Very Intensive IFR
Visi :
Ceiling :
>= 8 km
>= 3000ft
5 to 8 km
1000 to 3000 ft
1500m to 5 km
500 to 1000 ft
800 to 1500m
200 to 500 ft
< 800m
< 200 ft
Symbols :   Thunderstorms  Fog  Heavy snow  Heavy precipitations  Wind > 20 kt
SIGMETs :     Misc.  Thunderstorms  Icing  Turbulence  Mountain Waves  Volcanic Ashes






- Airport Elevation : 545 ft
- IATA code : PZY


LZPP - Piešťany

CURRENT METAR :
  • 041430Z 14006KT 110V170 9999 SCT030 08/02 Q1020

EXPIRED METARs :
  • 041400Z 13006KT 110V180 9999 SCT030 09/02 Q1020
  • 041330Z 13006KT 090V180 9999 FEW030 09/03 Q1020
  • 041300Z 13006KT 080V150 9999 SCT030 09/03 Q1020
  • 041230Z 14009KT 110V170 9999 BKN030 09/03 Q1020
  • 041200Z 13008KT 100V160 9999 BKN030 08/03 Q1021
  • 041130Z 13011KT 090V150 9999 BKN025 08/03 Q1021

TAF TAF LZPP
Valid from the 04 at 15:00 until the 05 at 00:00 UTC


041415Z 0415/0500 16007KT 9999 SCT025
TEMPO 0421/0500 -RA SCT010 BKN020
PROB40
TEMPO 0418/0500 15015G25KT



MET'MAP, your aeronautical weather chart ! - Copyright ORBIFLY December 2007 - Disclaimer

ORBIFLY MET'MAP TEAM :

Programming & Development : Alexandra Zaïnal
Original concept : Baudouin d'Aumeries
Technical & hardware support : Manuel Goepfert
Assistance : Marc-Olivier Méhu




SOURCES & CREDITS :

   NOAA